Tropical Cyclones
[Index]
Main Index Home Page Stock Weather Photos Extreme Storms Discussion Storm News and Storm Chasing Reports Tropical Cyclones / Hurricanes / Typhoons Weather Data and Links Wild Fires / Bushfires Weather Observation Techniques Weather Picture Catalogue Tornado Pictures and Reports Stock Video Footage and DVDs for sale
Season 1993-1994 Tropical Cyclone TOMAS Track Map
Season 1993-1994 Summaries: [BoM-AU] [JTWC-AU] [JTWC-SIO] [JTWC-SPAC] [JTWC-SH]
<<- Previous TC | JTWC 1993-1994 Season | Next TC ->>

click for intensity scale information  Lat/long Grid: Show Hide

 Date Labels: Show Hide

Joint Typhoon Warning Centre Cyclone Data

Name: TOMAS

19 Mar 1994 00:00 UTC to 26 Mar 1994 06:00 UTC

    date/time    lat    long     hPa   cat  kts
1994-03-19 00    6.4   175.6W                 15          
1994-03-19 06    6.9   176.0W                 15          
1994-03-19 12    7.3   176.5W                 20          
1994-03-19 18    7.6   177.0W                 20          
1994-03-20 00    7.8   177.7W                 20          
1994-03-20 06    7.9   178.5W                 25          
1994-03-20 12    7.8   179.5W                 25          
1994-03-20 18    7.5   179.2                  25          
1994-03-21 00    7.5   178.1                  25          
1994-03-21 06    8.2   177.0                  25          
1994-03-21 12    9.4   175.7                  25          
1994-03-21 18   10.7   174.1                  30          
1994-03-22 00   11.7   172.4                  30          
1994-03-22 06   12.0   171.7                  35          
1994-03-22 12   12.4   171.2                  35          
1994-03-22 18   13.1   170.8                  35          
1994-03-23 00   14.0   170.6            1     50          
1994-03-23 06   14.3   170.6            1     50          
1994-03-23 12   14.7   170.6            2     55          
1994-03-23 18   15.4   170.7            2     65          
1994-03-24 00   16.5   171.2            3     75          
1994-03-24 06   17.4   171.5            3     85          
1994-03-24 12   18.4   172.2            3     95          
1994-03-24 18   19.4   173.0            4    100          
1994-03-25 00   20.5   174.0            4    105          
1994-03-25 06   21.8   175.4            4    105          
1994-03-25 12   23.1   177.6            3     95          
1994-03-25 18   23.9   179.8            3     75          
1994-03-26 00   24.2   178.0W           2     65          
1994-03-26 06   24.3   175.9W           1     50          
Winds are 1-min average.

Tropical cyclone tracks developed by Michael Bath using data from the Joint Typhoon Warning Centre Best Tracks and Google Maps.


[Australian Severe Weather index] [Copyright Notice] [Email Contacts] [Search This Site] [Privacy Policy]
Document: tropical_cyclone_tomas.htm Updated: 18 September 2016